Stations météo

réclame
Mon MeteoGroup
Punta Galea Golf, Espagne (8059): Température de l'air & dewpoint: 18.05.2019 05:00:00 - 24.05.2019 05:00:00 (CEST)Punta Galea Golf, Espagne (8059): Vitesse du vent & gusts: 18.05.2019 05:00:00 - 24.05.2019 05:00:00 (CEST)Punta Galea Golf, Espagne (8059): Direction du vent: 18.05.2019 05:00:00 - 24.05.2019 05:00:00 (CEST)Punta Galea Golf, Espagne (8059): reduced air pressure: 18.05.2019 05:00:00 - 24.05.2019 05:00:00 (CEST)Punta Galea Golf, Espagne (8059): Quantités de précipitations: 18.05.2019 05:00:00 - 24.05.2019 05:00:00 (CEST)
Date & Time tt [°C] td [°C] ff [km/h] ff [knt] fx [km/h] fx [knt] dd ppp [hPa] rr [mm]
24.05.2019 05:00:00 - - - - - - - - -
24.05.2019 04:00:00 13,2 12,2 12 6 41 22 WNW 1020,9 0,0
24.05.2019 03:00:00 13,2 12,4 25 14 42 23 WNW 1020,9 0,0
24.05.2019 02:00:00 13,5 12,7 23 13 38 21 WNW 1021,2 -
24.05.2019 01:00:00 13,9 13,3 13 7 24 13 WNW 1021,5 0,0
24.05.2019 00:00:00 13,8 13,2 11 6 27 15 NW 1021,5 0,0
23.05.2019 23:00:00 13,9 13,5 13 7 28 15 WNW 1021,6 0,0
23.05.2019 22:00:00 14,0 13,6 5 3 20 11 NW 1021,5 0,3
23.05.2019 21:00:00 14,1 13,7 10 5 22 12 NW 1021,4 1,0
23.05.2019 20:00:00 14,1 13,5 14 8 34 18 WNW 1021,1 -
23.05.2019 19:00:00 14,8 13,7 14 8 28 15 NW 1020,7 0,0
23.05.2019 18:00:00 15,3 14,0 14 8 29 16 NW 1020,1 0,0
23.05.2019 17:00:00 15,7 14,4 13 7 31 17 NW 1019,9 0,0
23.05.2019 16:00:00 15,9 14,6 11 6 28 15 NW 1020,0 0,0
23.05.2019 15:00:00 15,1 13,9 14 7 28 15 NW 1019,8 0,0
23.05.2019 14:00:00 15,8 14,5 15 8 34 19 NW 1019,8 -
23.05.2019 13:00:00 15,4 14,1 16 9 31 17 NW 1020,1 0,0
23.05.2019 12:00:00 15,7 14,0 14 7 31 17 NW 1019,9 0,0
23.05.2019 11:00:00 15,8 14,3 10 5 - - NW 1019,4 -
23.05.2019 10:00:00 15,1 13,7 5 3 14 8 NW 1019,1 0,0
23.05.2019 09:00:00 15,1 13,9 6 4 12 6 S 1018,5 0,0
23.05.2019 08:00:00 13,7 12,7 9 5 14 8 S 1018,1 -
23.05.2019 07:00:00 13,2 12,4 10 5 14 8 SSE 1017,6 0,0
23.05.2019 06:00:00 12,8 12,2 9 5 14 8 S 1017,6 0,0
23.05.2019 05:00:00 13,0 12,4 10 6 15 8 SSE 1017,7 0,0
23.05.2019 04:00:00 12,9 12,3 9 5 13 7 SSE 1017,8 0,0
23.05.2019 03:00:00 13,1 12,3 7 4 10 5 S 1018,2 0,0
23.05.2019 02:00:00 13,2 12,4 4 2 7 4 S 1018,4 -
23.05.2019 01:00:00 13,8 12,8 3 1 5 3 SE 1018,6 0,0
23.05.2019 00:00:00 14,5 13,3 0 0 6 3 W 1018,9 0,0
22.05.2019 23:00:00 15,1 13,9 3 2 13 7 W 1018,7 0,0
22.05.2019 22:00:00 15,3 13,7 5 3 14 7 WSW 1018,3 0,0
22.05.2019 21:00:00 17,3 15,1 3 1 8 4 SSE 1018,0 0,0
22.05.2019 20:00:00 19,3 15,2 3 2 12 7 NNE 1017,4 -
22.05.2019 19:00:00 19,2 15,4 5 3 13 7 N 1017,5 0,0
22.05.2019 18:00:00 18,8 15,3 9 5 16 9 N 1017,6 0,0
22.05.2019 17:00:00 20,8 15,8 8 4 18 10 NNE 1017,9 0,0
22.05.2019 16:00:00 20,0 15,4 11 6 20 11 NE 1018,2 0,0
22.05.2019 15:00:00 18,5 14,8 14 8 22 12 NE 1018,7 0,0
22.05.2019 14:00:00 18,9 14,8 12 7 20 11 NE 1019,2 -
22.05.2019 13:00:00 18,5 13,8 9 5 20 11 NNE 1019,4 0,0
22.05.2019 12:00:00 19,3 13,1 5 3 20 11 SE 1019,9 0,0
22.05.2019 11:00:00 17,5 12,6 11 6 22 12 SSE 1020,3 0,0
22.05.2019 10:00:00 15,1 12,7 8 4 14 7 SSE 1020,8 0,0
22.05.2019 09:00:00 12,9 11,7 6 3 16 9 SSE 1020,9 0,0
22.05.2019 08:00:00 10,6 10,0 7 4 15 8 SSE 1021,0 -
22.05.2019 07:00:00 8,8 8,4 8 5 16 9 S 1021,2 0,0
22.05.2019 06:00:00 9,0 8,5 10 5 17 9 SSE 1021,1 0,0
22.05.2019 05:00:00 8,9 8,3 8 5 14 8 S 1021,1 0,0
22.05.2019 04:00:00 9,3 8,7 9 5 13 7 S 1021,4 0,0
22.05.2019 03:00:00 9,5 8,9 6 3 10 5 S 1021,5 0,0
22.05.2019 02:00:00 10,4 9,8 6 3 8 4 SSE 1021,5 -
22.05.2019 01:00:00 10,5 9,6 5 3 8 4 SSE 1021,6 0,0
22.05.2019 00:00:00 11,0 9,9 3 2 6 3 SSE 1021,6 0,0
21.05.2019 23:00:00 11,6 10,3 3 2 16 9 E 1021,6 0,0
21.05.2019 22:00:00 12,9 11,3 8 4 14 8 ENE 1021,0 0,0
21.05.2019 21:00:00 14,2 11,9 7 4 18 10 NE 1020,5 0,0
21.05.2019 20:00:00 15,0 12,5 12 6 22 12 NE 1020,1 -
21.05.2019 19:00:00 15,4 12,3 14 8 26 14 NE 1019,8 0,0
21.05.2019 18:00:00 16,1 12,6 15 8 27 15 NE 1019,8 0,0
21.05.2019 17:00:00 15,9 12,6 17 9 31 17 NE 1020,0 0,0
21.05.2019 16:00:00 16,0 13,2 18 10 32 17 NE 1019,7 0,0
21.05.2019 15:00:00 15,6 13,0 21 12 32 17 NE 1019,8 0,0
21.05.2019 14:00:00 16,0 12,7 19 10 29 16 NE 1020,2 -
21.05.2019 13:00:00 16,0 13,2 14 7 22 12 NE 1020,2 0,0
21.05.2019 12:00:00 15,2 12,7 11 6 16 8 NNE 1020,0 0,0
21.05.2019 11:00:00 15,0 12,0 8 4 14 8 NE 1020,1 0,0
21.05.2019 10:00:00 13,3 12,0 6 4 13 7 SSE 1020,1 0,0
21.05.2019 09:00:00 11,1 10,6 8 4 15 8 SSE 1019,9 0,0
21.05.2019 08:00:00 9,5 9,0 8 5 13 7 S 1019,7 -
21.05.2019 07:00:00 8,3 7,8 7 4 9 5 S 1019,2 0,0
21.05.2019 06:00:00 8,4 8,0 6 3 11 6 S 1018,7 0,0
21.05.2019 05:00:00 8,8 8,4 6 3 10 5 SSE 1018,5 0,0
21.05.2019 04:00:00 9,1 8,7 6 3 9 5 S 1018,5 0,0
21.05.2019 03:00:00 9,9 9,4 6 3 11 6 SSE 1018,3 0,0
21.05.2019 02:00:00 10,3 9,6 6 3 9 5 SSE 1018,8 -
21.05.2019 01:00:00 10,7 9,9 5 3 8 4 SSE 1018,8 0,0
21.05.2019 00:00:00 10,9 10,2 4 2 6 3 S 1018,8 0,0
20.05.2019 23:00:00 11,6 10,6 0 0 9 5 N 1018,6 0,0
20.05.2019 22:00:00 12,3 11,2 5 3 16 8 ENE 1017,6 0,0
20.05.2019 21:00:00 13,2 11,9 10 5 19 11 NE 1017,3 0,0
20.05.2019 20:00:00 13,9 12,3 12 6 23 12 NE 1017,2 -
20.05.2019 19:00:00 14,6 12,4 12 7 21 11 NE 1016,9 0,0
20.05.2019 18:00:00 14,9 12,0 12 6 18 10 NNE 1016,8 0,0
20.05.2019 17:00:00 15,6 12,5 10 5 18 10 NNE 1016,8 0,0
20.05.2019 16:00:00 15,3 12,2 9 5 16 9 NNE 1017,1 0,0
20.05.2019 15:00:00 15,4 12,1 9 5 17 9 N 1017,5 0,0
20.05.2019 14:00:00 14,9 11,7 9 5 15 8 N 1017,3 -
20.05.2019 13:00:00 15,0 11,6 8 5 15 8 N 1017,5 0,0
20.05.2019 12:00:00 14,2 10,6 7 4 13 7 N 1017,6 0,0
20.05.2019 11:00:00 13,7 10,5 6 3 14 8 NW 1017,7 0,0
20.05.2019 10:00:00 13,1 11,3 6 3 13 7 SSE 1017,5 0,0
20.05.2019 09:00:00 9,6 9,2 8 5 15 8 S 1017,5 0,0
20.05.2019 08:00:00 8,2 7,7 8 4 14 7 S 1016,9 -
20.05.2019 07:00:00 7,7 7,3 9 5 13 7 SSE 1016,5 0,0
20.05.2019 06:00:00 8,0 7,6 9 5 12 7 SSE 1016,5 0,0
20.05.2019 05:00:00 8,4 7,8 8 4 12 6 S 1016,5 0,0
20.05.2019 04:00:00 9,2 8,4 5 3 10 6 SSW 1016,5 0,0
20.05.2019 03:00:00 9,8 8,9 5 3 9 5 SW 1016,8 0,0
20.05.2019 02:00:00 10,7 9,6 3 2 11 6 WSW 1017,0 -
20.05.2019 01:00:00 11,5 10,3 6 3 13 7 W 1017,6 0,0
20.05.2019 00:00:00 11,7 10,3 5 3 15 8 W 1017,7 0,0
19.05.2019 23:00:00 11,8 10,5 6 4 24 13 W 1017,8 0,0
19.05.2019 22:00:00 12,1 10,6 15 8 26 14 WNW 1016,8 0,0
19.05.2019 21:00:00 12,5 11,1 15 8 29 16 NW 1016,6 0,0
19.05.2019 20:00:00 12,6 11,4 17 9 35 19 NW 1016,0 -
19.05.2019 19:00:00 12,5 11,2 19 11 37 20 NW 1016,0 0,0
19.05.2019 18:00:00 12,9 11,4 22 12 45 25 NW 1015,9 0,0
19.05.2019 17:00:00 14,3 12,3 22 12 44 24 WNW 1016,0 0,0
19.05.2019 16:00:00 12,9 11,1 25 13 46 25 WNW 1016,1 0,0
19.05.2019 15:00:00 12,1 10,6 18 10 44 24 WNW 1015,8 0,0
19.05.2019 14:00:00 11,8 10,9 21 11 46 25 WNW 1015,7 -
19.05.2019 13:00:00 10,9 10,2 16 8 42 23 WNW 1015,5 1,3
19.05.2019 12:00:00 11,0 10,2 15 8 36 19 WNW 1015,2 1,8
19.05.2019 11:00:00 11,0 10,2 19 10 43 23 WNW 1014,4 0,1
19.05.2019 10:00:00 10,5 9,9 14 8 48 26 WNW 1014,2 1,2
19.05.2019 09:00:00 10,2 9,6 15 8 36 19 WNW 1013,7 0,5
19.05.2019 08:00:00 10,1 9,4 16 8 40 21 WNW 1013,5 -
19.05.2019 07:00:00 10,6 10,0 15 8 46 25 WNW 1013,4 0,1
19.05.2019 06:00:00 11,0 10,4 32 17 49 27 WNW 1013,1 1,8
19.05.2019 05:00:00 10,9 10,3 16 8 41 22 WNW 1012,7 1,8
19.05.2019 04:00:00 11,0 10,4 19 10 45 25 WNW 1012,6 1,5
19.05.2019 03:00:00 11,1 10,5 23 13 44 24 WNW 1012,8 0,3
19.05.2019 02:00:00 11,2 10,4 17 9 46 25 WNW 1013,3 -
19.05.2019 01:00:00 11,5 10,5 24 13 48 26 WNW 1013,4 0,1
19.05.2019 00:00:00 11,8 10,6 24 13 46 25 WNW 1013,2 0,0
18.05.2019 23:00:00 11,8 10,6 23 12 49 26 WNW 1013,5 0,2
18.05.2019 22:00:00 11,8 10,5 25 13 48 26 WNW 1013,2 0,1
18.05.2019 21:00:00 11,4 10,3 18 10 37 20 WNW 1013,0 0,2
18.05.2019 20:00:00 11,0 10,0 19 10 38 21 W 1012,8 -
18.05.2019 19:00:00 10,6 9,8 18 10 37 20 W 1012,8 2,1
18.05.2019 18:00:00 10,5 9,7 16 9 32 18 W 1012,7 2,7
18.05.2019 17:00:00 11,3 10,0 12 7 36 19 WNW 1012,4 0,6
18.05.2019 16:00:00 11,2 9,8 18 10 39 21 W 1012,6 0,5
18.05.2019 15:00:00 11,0 9,4 20 11 49 26 W 1012,4 0,6
18.05.2019 14:00:00 10,7 9,2 22 12 43 23 W 1012,3 -
18.05.2019 13:00:00 10,9 9,0 19 10 39 21 W 1012,1 0,1
18.05.2019 12:00:00 10,2 9,3 16 8 33 18 W 1012,2 2,1
18.05.2019 11:00:00 10,1 8,9 16 9 39 21 W 1012,2 0,7
18.05.2019 10:00:00 10,6 8,4 18 10 34 19 W 1011,5 0,0
18.05.2019 09:00:00 10,4 7,8 16 8 38 21 WNW 1011,6 0,0
18.05.2019 08:00:00 10,7 7,1 13 7 31 17 W 1011,1 -
18.05.2019 07:00:00 10,3 7,4 19 11 39 21 W 1011,2 0,0
18.05.2019 06:00:00 10,6 5,9 19 11 38 21 W 1011,4 0,0
18.05.2019 05:00:00 10,6 6,1 18 10 34 18 W 1011,6 0,0

tt = Température de l'air
td = dewpoint
ff = Vitesse du vent
fx = gusts
dd = Direction du vent
ppp = reduced air pressure
rr = Quantités de précipitations

stations d'obs. à proximité